sensor_id;sensor_type;location;lat;lon;timestamp;pressure;altitude;pressure_sealevel;temperature;humidity
54854;BME280;40747;49.480;8.658;2023-01-29T00:01:24;101657.63;;;-1.05;84.45
54854;BME280;40747;49.480;8.658;2023-01-29T00:03:50;101646.00;;;-1.17;86.64
54854;BME280;40747;49.480;8.658;2023-01-29T00:06:16;101652.94;;;-1.16;85.13
54854;BME280;40747;49.480;8.658;2023-01-29T00:08:41;101652.69;;;-1.22;85.98
54854;BME280;40747;49.480;8.658;2023-01-29T00:11:08;101644.25;;;-1.18;85.28
54854;BME280;40747;49.480;8.658;2023-01-29T00:13:34;101645.50;;;-1.06;85.45
54854;BME280;40747;49.480;8.658;2023-01-29T00:15:59;101644.94;;;-0.99;85.83
54854;BME280;40747;49.480;8.658;2023-01-29T00:18:26;101640.13;;;-1.12;86.16
54854;BME280;40747;49.480;8.658;2023-01-29T00:20:51;101642.34;;;-1.22;87.31
54854;BME280;40747;49.480;8.658;2023-01-29T00:23:17;101638.66;;;-1.28;88.03
54854;BME280;40747;49.480;8.658;2023-01-29T00:25:42;101637.91;;;-1.03;87.37
54854;BME280;40747;49.480;8.658;2023-01-29T00:28:08;101634.81;;;-1.16;85.34
54854;BME280;40747;49.480;8.658;2023-01-29T00:30:34;101632.00;;;-1.22;85.12
54854;BME280;40747;49.480;8.658;2023-01-29T00:33:00;101644.47;;;-1.11;84.94
54854;BME280;40747;49.480;8.658;2023-01-29T00:35:25;101635.84;;;-0.89;83.00
54854;BME280;40747;49.480;8.658;2023-01-29T00:37:50;101640.28;;;-1.08;83.91
54854;BME280;40747;49.480;8.658;2023-01-29T00:40:16;101631.09;;;-1.24;85.22
54854;BME280;40747;49.480;8.658;2023-01-29T00:42:43;101644.00;;;-1.24;85.71
54854;BME280;40747;49.480;8.658;2023-01-29T00:45:27;101640.34;;;-1.06;83.96
54854;BME280;40747;49.480;8.658;2023-01-29T00:47:53;101639.59;;;-1.04;82.96
54854;BME280;40747;49.480;8.658;2023-01-29T00:50:18;101640.25;;;-1.09;82.75
54854;BME280;40747;49.480;8.658;2023-01-29T00:52:43;101643.53;;;-1.13;82.30
54854;BME280;40747;49.480;8.658;2023-01-29T00:55:10;101637.22;;;-0.97;82.55
54854;BME280;40747;49.480;8.658;2023-01-29T00:57:37;101653.41;;;-1.03;81.55
54854;BME280;40747;49.480;8.658;2023-01-29T01:00:05;101645.16;;;-1.16;82.77
54854;BME280;40747;49.480;8.658;2023-01-29T01:02:31;101634.44;;;-1.26;83.56
54854;BME280;40747;49.480;8.658;2023-01-29T01:05:16;101667.72;;;-1.11;84.16
54854;BME280;40747;49.480;8.658;2023-01-29T01:07:53;101663.31;;;-1.14;84.39
54854;BME280;40747;49.480;8.658;2023-01-29T01:10:25;101662.09;;;-1.24;84.67
54854;BME280;40747;49.480;8.658;2023-01-29T01:12:54;101662.50;;;-1.13;83.46
54854;BME280;40747;49.480;8.658;2023-01-29T01:15:21;101662.34;;;-1.18;84.55
54854;BME280;40747;49.480;8.658;2023-01-29T01:17:50;101642.88;;;-1.30;83.98
54854;BME280;40747;49.480;8.658;2023-01-29T01:20:16;101661.34;;;-1.21;83.79
54854;BME280;40747;49.480;8.658;2023-01-29T01:22:41;101654.47;;;-1.21;84.92
54854;BME280;40747;49.480;8.658;2023-01-29T01:25:07;101660.13;;;-1.08;81.67
54854;BME280;40747;49.480;8.658;2023-01-29T01:27:32;101650.13;;;-0.99;80.91
54854;BME280;40747;49.480;8.658;2023-01-29T01:29:59;101650.59;;;-1.09;81.58
54854;BME280;40747;49.480;8.658;2023-01-29T01:32:24;101656.53;;;-1.12;82.78
54854;BME280;40747;49.480;8.658;2023-01-29T01:34:51;101651.09;;;-1.18;83.94
54854;BME280;40747;49.480;8.658;2023-01-29T01:37:16;101644.59;;;-1.08;84.03
54854;BME280;40747;49.480;8.658;2023-01-29T01:39:42;101646.00;;;-1.17;83.81
54854;BME280;40747;49.480;8.658;2023-01-29T01:42:12;101643.25;;;-1.21;83.97
54854;BME280;40747;49.480;8.658;2023-01-29T01:44:56;101647.75;;;-1.16;84.25
54854;BME280;40747;49.480;8.658;2023-01-29T01:50:00;101641.66;;;-1.18;83.30
54854;BME280;40747;49.480;8.658;2023-01-29T01:52:28;101641.53;;;-1.21;82.44
54854;BME280;40747;49.480;8.658;2023-01-29T01:54:55;101648.47;;;-1.20;82.09
54854;BME280;40747;49.480;8.658;2023-01-29T01:57:22;101652.97;;;-1.14;82.33
54854;BME280;40747;49.480;8.658;2023-01-29T01:59:55;101609.81;;;-1.39;80.98
54854;BME280;40747;49.480;8.658;2023-01-29T02:02:23;101632.72;;;-1.26;81.30
54854;BME280;40747;49.480;8.658;2023-01-29T02:05:09;101640.81;;;-1.17;81.72
54854;BME280;40747;49.480;8.658;2023-01-29T02:07:54;101644.59;;;-1.08;81.80
54854;BME280;40747;49.480;8.658;2023-01-29T02:10:44;101642.47;;;-1.19;81.38
54854;BME280;40747;49.480;8.658;2023-01-29T02:13:09;101631.91;;;-1.25;81.83
54854;BME280;40747;49.480;8.658;2023-01-29T02:15:36;101636.94;;;-1.28;81.71
54854;BME280;40747;49.480;8.658;2023-01-29T02:18:05;101638.94;;;-1.21;81.48
54854;BME280;40747;49.480;8.658;2023-01-29T02:20:31;101635.06;;;-1.32;81.82
54854;BME280;40747;49.480;8.658;2023-01-29T02:23:32;101630.50;;;-1.39;82.51
54854;BME280;40747;49.480;8.658;2023-01-29T02:26:30;101637.06;;;-1.25;81.66
54854;BME280;40747;49.480;8.658;2023-01-29T02:34:41;101616.66;;;-1.40;83.72
54854;BME280;40747;49.480;8.658;2023-01-29T02:37:37;101614.75;;;-1.23;82.14
54854;BME280;40747;49.480;8.658;2023-01-29T02:40:23;101609.09;;;-1.35;82.68
54854;BME280;40747;49.480;8.658;2023-01-29T02:43:08;101598.53;;;-1.19;82.73
54854;BME280;40747;49.480;8.658;2023-01-29T02:45:55;101606.63;;;-1.32;81.98
54854;BME280;40747;49.480;8.658;2023-01-29T02:48:28;101601.34;;;-1.35;82.79
54854;BME280;40747;49.480;8.658;2023-01-29T02:51:05;101598.22;;;-1.49;82.63
54854;BME280;40747;49.480;8.658;2023-01-29T02:53:52;101602.28;;;-1.56;83.20
54854;BME280;40747;49.480;8.658;2023-01-29T02:56:25;101598.88;;;-1.55;83.60
54854;BME280;40747;49.480;8.658;2023-01-29T02:58:58;101585.47;;;-1.67;84.46
54854;BME280;40747;49.480;8.658;2023-01-29T03:01:42;101598.78;;;-1.56;83.92
54854;BME280;40747;49.480;8.658;2023-01-29T03:04:13;101612.88;;;-1.71;85.20
54854;BME280;40747;49.480;8.658;2023-01-29T03:06:44;101613.38;;;-1.79;86.74
54854;BME280;40747;49.480;8.658;2023-01-29T03:09:27;101616.78;;;-1.81;86.89
54854;BME280;40747;49.480;8.658;2023-01-29T03:11:58;101609.63;;;-1.65;86.28
54854;BME280;40747;49.480;8.658;2023-01-29T03:14:33;101611.28;;;-1.88;87.81
54854;BME280;40747;49.480;8.658;2023-01-29T03:17:31;101619.53;;;-1.97;88.49
54854;BME280;40747;49.480;8.658;2023-01-29T03:20:01;101614.44;;;-1.74;88.12
54854;BME280;40747;49.480;8.658;2023-01-29T03:22:29;101612.94;;;-1.69;86.86
54854;BME280;40747;49.480;8.658;2023-01-29T03:24:56;101615.09;;;-1.80;87.33
54854;BME280;40747;49.480;8.658;2023-01-29T03:27:45;101613.94;;;-1.87;87.24
54854;BME280;40747;49.480;8.658;2023-01-29T03:30:33;101616.97;;;-1.55;86.12
54854;BME280;40747;49.480;8.658;2023-01-29T03:33:20;101626.16;;;-1.61;84.59
54854;BME280;40747;49.480;8.658;2023-01-29T03:35:57;101632.84;;;-1.67;83.90
54854;BME280;40747;49.480;8.658;2023-01-29T03:38:24;101628.69;;;-1.63;83.27
54854;BME280;40747;49.480;8.658;2023-01-29T03:40:57;101637.59;;;-1.34;82.75
54854;BME280;40747;49.480;8.658;2023-01-29T03:44:02;101612.06;;;-1.70;83.60
54854;BME280;40747;49.480;8.658;2023-01-29T03:46:43;101636.94;;;-1.72;85.37
54854;BME280;40747;49.480;8.658;2023-01-29T03:49:24;101636.88;;;-1.73;87.62
54854;BME280;40747;49.480;8.658;2023-01-29T03:52:02;101638.59;;;-1.74;87.19
54854;BME280;40747;49.480;8.658;2023-01-29T04:00:13;101634.50;;;-1.69;85.43
54854;BME280;40747;49.480;8.658;2023-01-29T04:05:41;101636.38;;;-1.65;83.11
54854;BME280;40747;49.480;8.658;2023-01-29T04:08:11;101640.22;;;-1.55;83.53
54854;BME280;40747;49.480;8.658;2023-01-29T04:10:40;101650.09;;;-1.44;84.77
54854;BME280;40747;49.480;8.658;2023-01-29T04:13:10;101661.63;;;-1.57;85.62
54854;BME280;40747;49.480;8.658;2023-01-29T04:15:44;101658.56;;;-1.70;86.33
54854;BME280;40747;49.480;8.658;2023-01-29T04:18:11;101654.00;;;-1.75;86.79
54854;BME280;40747;49.480;8.658;2023-01-29T04:20:36;101650.00;;;-1.69;87.79
54854;BME280;40747;49.480;8.658;2023-01-29T04:23:05;101648.06;;;-1.73;87.23
54854;BME280;40747;49.480;8.658;2023-01-29T04:25:41;101646.44;;;-1.71;86.09
54854;BME280;40747;49.480;8.658;2023-01-29T04:28:19;101642.03;;;-1.73;86.91
54854;BME280;40747;49.480;8.658;2023-01-29T04:33:42;101635.25;;;-1.71;86.28
54854;BME280;40747;49.480;8.658;2023-01-29T04:36:25;101629.81;;;-1.77;87.64
54854;BME280;40747;49.480;8.658;2023-01-29T04:41:30;101643.13;;;-1.68;86.58
54854;BME280;40747;49.480;8.658;2023-01-29T04:49:45;101640.28;;;-1.74;85.74
54854;BME280;40747;49.480;8.658;2023-01-29T04:52:22;101627.09;;;-1.59;84.61
54854;BME280;40747;49.480;8.658;2023-01-29T04:57:33;101609.41;;;-1.71;83.91
54854;BME280;40747;49.480;8.658;2023-01-29T05:00:12;101596.50;;;-1.71;84.19
54854;BME280;40747;49.480;8.658;2023-01-29T05:02:40;101586.38;;;-1.65;83.96
54854;BME280;40747;49.480;8.658;2023-01-29T05:05:08;101584.97;;;-1.79;84.32
54854;BME280;40747;49.480;8.658;2023-01-29T05:07:36;101595.03;;;-1.86;84.35
54854;BME280;40747;49.480;8.658;2023-01-29T05:10:07;101600.22;;;-1.86;84.04
54854;BME280;40747;49.480;8.658;2023-01-29T05:12:35;101596.09;;;-1.81;84.33
54854;BME280;40747;49.480;8.658;2023-01-29T05:15:03;101583.28;;;-2.00;84.70
54854;BME280;40747;49.480;8.658;2023-01-29T05:17:29;101582.91;;;-2.09;84.68
54854;BME280;40747;49.480;8.658;2023-01-29T05:19:55;101594.81;;;-2.13;85.75
54854;BME280;40747;49.480;8.658;2023-01-29T05:22:21;101608.78;;;-2.08;86.30
54854;BME280;40747;49.480;8.658;2023-01-29T05:24:50;101595.47;;;-2.38;87.22
54854;BME280;40747;49.480;8.658;2023-01-29T05:27:18;101615.97;;;-2.41;87.98
54854;BME280;40747;49.480;8.658;2023-01-29T05:30:03;101617.47;;;-2.47;88.13
54854;BME280;40747;49.480;8.658;2023-01-29T05:32:28;101616.78;;;-2.42;88.56
54854;BME280;40747;49.480;8.658;2023-01-29T05:34:53;101600.25;;;-2.67;90.25
54854;BME280;40747;49.480;8.658;2023-01-29T05:37:19;101630.78;;;-2.57;90.67
54854;BME280;40747;49.480;8.658;2023-01-29T05:39:44;101629.56;;;-2.65;91.06
54854;BME280;40747;49.480;8.658;2023-01-29T05:42:09;101633.16;;;-2.42;91.12
54854;BME280;40747;49.480;8.658;2023-01-29T05:44:34;101630.66;;;-2.40;89.97
54854;BME280;40747;49.480;8.658;2023-01-29T05:47:00;101630.31;;;-2.48;90.79
54854;BME280;40747;49.480;8.658;2023-01-29T05:49:27;101635.00;;;-2.59;90.97
54854;BME280;40747;49.480;8.658;2023-01-29T05:51:52;101636.13;;;-2.52;90.29
54854;BME280;40747;49.480;8.658;2023-01-29T05:54:17;101635.13;;;-2.56;90.47
54854;BME280;40747;49.480;8.658;2023-01-29T05:56:42;101624.94;;;-2.53;90.95
54854;BME280;40747;49.480;8.658;2023-01-29T05:59:08;101613.41;;;-2.61;90.66
54854;BME280;40747;49.480;8.658;2023-01-29T06:01:33;101616.91;;;-2.39;90.23
54854;BME280;40747;49.480;8.658;2023-01-29T06:03:58;101613.03;;;-2.29;89.62
54854;BME280;40747;49.480;8.658;2023-01-29T06:06:24;101617.00;;;-2.38;90.44
54854;BME280;40747;49.480;8.658;2023-01-29T06:08:49;101612.66;;;-2.39;91.39
54854;BME280;40747;49.480;8.658;2023-01-29T06:11:14;101607.25;;;-2.24;91.64
54854;BME280;40747;49.480;8.658;2023-01-29T06:13:42;101609.31;;;-2.36;91.63
54854;BME280;40747;49.480;8.658;2023-01-29T06:16:09;101612.25;;;-2.48;92.13
54854;BME280;40747;49.480;8.658;2023-01-29T06:18:35;101620.94;;;-2.46;91.53
54854;BME280;40747;49.480;8.658;2023-01-29T06:21:02;101620.50;;;-2.16;90.58
54854;BME280;40747;49.480;8.658;2023-01-29T06:23:29;101627.56;;;-2.32;91.56
54854;BME280;40747;49.480;8.658;2023-01-29T06:26:02;101630.16;;;-2.32;92.33
54854;BME280;40747;49.480;8.658;2023-01-29T06:28:28;101631.72;;;-2.35;91.93
54854;BME280;40747;49.480;8.658;2023-01-29T06:30:56;101630.63;;;-2.21;92.48
54854;BME280;40747;49.480;8.658;2023-01-29T06:33:22;101634.53;;;-2.09;91.63
54854;BME280;40747;49.480;8.658;2023-01-29T06:35:47;101632.53;;;-1.95;91.08
54854;BME280;40747;49.480;8.658;2023-01-29T06:38:12;101622.09;;;-1.77;90.35
54854;BME280;40747;49.480;8.658;2023-01-29T06:40:38;101619.03;;;-1.67;89.25
54854;BME280;40747;49.480;8.658;2023-01-29T06:43:03;101619.97;;;-1.65;88.73
54854;BME280;40747;49.480;8.658;2023-01-29T06:45:28;101614.19;;;-1.59;87.28
54854;BME280;40747;49.480;8.658;2023-01-29T06:47:55;101613.81;;;-1.25;86.17
54854;BME280;40747;49.480;8.658;2023-01-29T06:50:20;101609.16;;;-1.11;86.17
54854;BME280;40747;49.480;8.658;2023-01-29T06:52:45;101601.03;;;-0.97;85.37
54854;BME280;40747;49.480;8.658;2023-01-29T06:55:10;101617.78;;;-1.10;85.53
54854;BME280;40747;49.480;8.658;2023-01-29T06:57:36;101605.28;;;-1.00;85.00
54854;BME280;40747;49.480;8.658;2023-01-29T07:00:02;101595.81;;;-0.75;84.17
54854;BME280;40747;49.480;8.658;2023-01-29T07:02:27;101604.34;;;-0.53;84.00
54854;BME280;40747;49.480;8.658;2023-01-29T07:04:52;101614.03;;;-0.47;82.92
54854;BME280;40747;49.480;8.658;2023-01-29T07:07:17;101612.03;;;-0.56;82.61
54854;BME280;40747;49.480;8.658;2023-01-29T07:09:43;101610.56;;;-1.19;83.86
54854;BME280;40747;49.480;8.658;2023-01-29T07:12:09;101632.91;;;-1.21;84.92
54854;BME280;40747;49.480;8.658;2023-01-29T07:14:34;101627.31;;;-1.09;85.11
54854;BME280;40747;49.480;8.658;2023-01-29T07:17:00;101620.56;;;-1.06;84.93
54854;BME280;40747;49.480;8.658;2023-01-29T07:19:25;101626.34;;;-0.89;84.65
54854;BME280;40747;49.480;8.658;2023-01-29T07:21:50;101620.97;;;-0.71;84.25
54854;BME280;40747;49.480;8.658;2023-01-29T07:24:16;101616.50;;;-0.51;84.34
54854;BME280;40747;49.480;8.658;2023-01-29T07:26:41;101621.41;;;-0.34;83.56
54854;BME280;40747;49.480;8.658;2023-01-29T07:29:06;101628.97;;;-0.40;83.33
54854;BME280;40747;49.480;8.658;2023-01-29T07:31:32;101630.59;;;-0.42;82.48
54854;BME280;40747;49.480;8.658;2023-01-29T07:33:57;101612.06;;;-0.55;83.28
54854;BME280;40747;49.480;8.658;2023-01-29T07:36:22;101621.16;;;-0.42;83.57
54854;BME280;40747;49.480;8.658;2023-01-29T07:38:48;101626.00;;;-0.27;83.18
54854;BME280;40747;49.480;8.658;2023-01-29T07:41:14;101623.66;;;-0.19;83.49
54854;BME280;40747;49.480;8.658;2023-01-29T07:43:40;101616.03;;;-0.14;82.75
54854;BME280;40747;49.480;8.658;2023-01-29T07:46:05;101620.47;;;-0.10;82.32
54854;BME280;40747;49.480;8.658;2023-01-29T07:48:30;101631.72;;;-0.10;81.91
54854;BME280;40747;49.480;8.658;2023-01-29T07:50:56;101631.94;;;-0.29;81.88
54854;BME280;40747;49.480;8.658;2023-01-29T07:53:23;101630.09;;;-0.32;82.00
54854;BME280;40747;49.480;8.658;2023-01-29T07:55:49;101639.53;;;-0.34;82.14
54854;BME280;40747;49.480;8.658;2023-01-29T07:58:14;101645.44;;;-0.38;82.66
54854;BME280;40747;49.480;8.658;2023-01-29T08:00:40;101651.03;;;-0.26;82.45
54854;BME280;40747;49.480;8.658;2023-01-29T08:03:08;101655.16;;;-0.31;82.63
54854;BME280;40747;49.480;8.658;2023-01-29T08:05:35;101648.53;;;-0.24;83.66
54854;BME280;40747;49.480;8.658;2023-01-29T08:08:00;101659.13;;;-0.17;83.05
54854;BME280;40747;49.480;8.658;2023-01-29T08:10:26;101666.19;;;-0.12;83.11
54854;BME280;40747;49.480;8.658;2023-01-29T08:12:56;101664.09;;;-0.23;83.27
54854;BME280;40747;49.480;8.658;2023-01-29T08:15:21;101665.66;;;-0.28;83.14
54854;BME280;40747;49.480;8.658;2023-01-29T08:17:48;101657.25;;;-0.21;83.87
54854;BME280;40747;49.480;8.658;2023-01-29T08:20:13;101660.19;;;-0.11;83.51
54854;BME280;40747;49.480;8.658;2023-01-29T08:22:39;101656.19;;;-0.02;83.00
54854;BME280;40747;49.480;8.658;2023-01-29T08:25:04;101621.34;;;-0.11;83.66
54854;BME280;40747;49.480;8.658;2023-01-29T08:27:29;101641.75;;;0.05;82.61
54854;BME280;40747;49.480;8.658;2023-01-29T08:29:54;101652.72;;;0.24;83.29
54854;BME280;40747;49.480;8.658;2023-01-29T08:32:20;101648.56;;;0.29;82.13
54854;BME280;40747;49.480;8.658;2023-01-29T08:34:45;101645.72;;;0.21;82.64
54854;BME280;40747;49.480;8.658;2023-01-29T08:37:11;101651.38;;;0.09;81.86
54854;BME280;40747;49.480;8.658;2023-01-29T08:39:36;101656.75;;;-0.10;82.11
54854;BME280;40747;49.480;8.658;2023-01-29T08:42:01;101666.09;;;0.10;82.01
54854;BME280;40747;49.480;8.658;2023-01-29T08:44:27;101666.88;;;0.08;82.20
54854;BME280;40747;49.480;8.658;2023-01-29T08:46:52;101686.00;;;-0.13;82.01
54854;BME280;40747;49.480;8.658;2023-01-29T08:49:17;101679.22;;;-0.09;82.17
54854;BME280;40747;49.480;8.658;2023-01-29T08:51:42;101687.81;;;-0.10;81.54
54854;BME280;40747;49.480;8.658;2023-01-29T08:54:08;101690.41;;;-0.35;82.69
54854;BME280;40747;49.480;8.658;2023-01-29T08:56:33;101688.91;;;-0.54;83.78
54854;BME280;40747;49.480;8.658;2023-01-29T08:58:58;101682.31;;;-0.44;84.23
54854;BME280;40747;49.480;8.658;2023-01-29T09:01:23;101673.13;;;-0.11;83.25
54854;BME280;40747;49.480;8.658;2023-01-29T09:03:49;101646.53;;;0.20;83.15
54854;BME280;40747;49.480;8.658;2023-01-29T09:06:14;101646.09;;;0.32;80.98
54854;BME280;40747;49.480;8.658;2023-01-29T09:08:40;101625.88;;;0.49;80.42
54854;BME280;40747;49.480;8.658;2023-01-29T09:11:06;101621.53;;;-0.55;82.58
54854;BME280;40747;49.480;8.658;2023-01-29T09:13:32;101607.88;;;-0.75;86.53
54854;BME280;40747;49.480;8.658;2023-01-29T09:16:02;101554.09;;;-1.31;86.38
54854;BME280;40747;49.480;8.658;2023-01-29T09:18:28;101607.81;;;-0.77;86.93
54854;BME280;40747;49.480;8.658;2023-01-29T09:20:54;101603.13;;;-0.63;84.83
54854;BME280;40747;49.480;8.658;2023-01-29T09:23:21;101604.31;;;-0.79;84.83
54854;BME280;40747;49.480;8.658;2023-01-29T09:25:46;101612.59;;;-0.39;84.45
54854;BME280;40747;49.480;8.658;2023-01-29T09:28:12;101615.94;;;-0.18;82.47
54854;BME280;40747;49.480;8.658;2023-01-29T09:30:37;101615.00;;;-0.20;82.89
54854;BME280;40747;49.480;8.658;2023-01-29T09:33:04;101631.78;;;-0.34;82.57
54854;BME280;40747;49.480;8.658;2023-01-29T09:35:30;101627.13;;;-0.19;83.97
54854;BME280;40747;49.480;8.658;2023-01-29T09:37:55;101634.28;;;-0.11;82.96
54854;BME280;40747;49.480;8.658;2023-01-29T09:40:25;101648.56;;;0.03;82.71
54854;BME280;40747;49.480;8.658;2023-01-29T09:42:55;101638.81;;;-0.04;81.44
54854;BME280;40747;49.480;8.658;2023-01-29T09:45:24;101636.25;;;-0.28;81.47
54854;BME280;40747;49.480;8.658;2023-01-29T09:47:52;101649.66;;;-0.16;81.09
54854;BME280;40747;49.480;8.658;2023-01-29T09:50:29;101650.38;;;0.06;81.12
54854;BME280;40747;49.480;8.658;2023-01-29T09:56:12;101658.88;;;-0.24;79.81
54854;BME280;40747;49.480;8.658;2023-01-29T09:58:40;101673.00;;;-0.14;81.53
54854;BME280;40747;49.480;8.658;2023-01-29T10:04:13;101666.47;;;-0.29;78.86
54854;BME280;40747;49.480;8.658;2023-01-29T10:13:02;101688.22;;;-0.24;81.88
54854;BME280;40747;49.480;8.658;2023-01-29T10:18:31;101687.72;;;-0.13;79.31
54854;BME280;40747;49.480;8.658;2023-01-29T10:23:35;101682.81;;;-0.06;80.72
54854;BME280;40747;49.480;8.658;2023-01-29T10:26:02;101675.81;;;-0.08;80.68
54854;BME280;40747;49.480;8.658;2023-01-29T10:28:32;101666.06;;;-0.15;79.78
54854;BME280;40747;49.480;8.658;2023-01-29T10:31:06;101665.38;;;-0.11;79.87
54854;BME280;40747;49.480;8.658;2023-01-29T10:33:41;101656.66;;;-0.13;80.78
54854;BME280;40747;49.480;8.658;2023-01-29T10:36:15;101667.09;;;-0.10;79.41
54854;BME280;40747;49.480;8.658;2023-01-29T10:38:44;101651.41;;;-0.15;79.00
54854;BME280;40747;49.480;8.658;2023-01-29T10:43:49;101639.06;;;0.04;77.95
54854;BME280;40747;49.480;8.658;2023-01-29T10:46:25;101635.78;;;0.62;76.95
54854;BME280;40747;49.480;8.658;2023-01-29T10:49:14;101641.69;;;1.14;75.60
54854;BME280;40747;49.480;8.658;2023-01-29T10:52:01;101633.66;;;1.36;74.75
54854;BME280;40747;49.480;8.658;2023-01-29T11:00:21;101610.94;;;0.42;76.35
54854;BME280;40747;49.480;8.658;2023-01-29T11:02:49;101601.88;;;0.27;77.35
54854;BME280;40747;49.480;8.658;2023-01-29T11:05:27;101600.47;;;0.11;76.97
54854;BME280;40747;49.480;8.658;2023-01-29T11:08:07;101610.03;;;-0.13;78.06
54854;BME280;40747;49.480;8.658;2023-01-29T11:13:28;101578.06;;;0.68;78.00
54854;BME280;40747;49.480;8.658;2023-01-29T11:15:55;101591.66;;;0.06;77.42
54854;BME280;40747;49.480;8.658;2023-01-29T11:18:20;101582.88;;;0.56;78.17
54854;BME280;40747;49.480;8.658;2023-01-29T11:20:59;101586.41;;;0.58;77.37
54854;BME280;40747;49.480;8.658;2023-01-29T11:23:26;101592.56;;;0.34;76.30
54854;BME280;40747;49.480;8.658;2023-01-29T11:25:54;101582.81;;;0.54;76.93
54854;BME280;40747;49.480;8.658;2023-01-29T11:28:40;101587.66;;;0.43;77.39
54854;BME280;40747;49.480;8.658;2023-01-29T11:31:26;101586.66;;;0.67;77.00
54854;BME280;40747;49.480;8.658;2023-01-29T11:34:03;101572.50;;;0.85;77.12
54854;BME280;40747;49.480;8.658;2023-01-29T11:39:13;101551.34;;;0.71;74.91
54854;BME280;40747;49.480;8.658;2023-01-29T11:41:59;101545.19;;;0.97;75.21
54854;BME280;40747;49.480;8.658;2023-01-29T11:44:27;101549.31;;;0.91;77.15
54854;BME280;40747;49.480;8.658;2023-01-29T11:46:55;101537.00;;;0.84;75.06
54854;BME280;40747;49.480;8.658;2023-01-29T11:49:32;101524.50;;;0.70;76.08
54854;BME280;40747;49.480;8.658;2023-01-29T11:52:06;101517.28;;;0.89;75.28
54854;BME280;40747;49.480;8.658;2023-01-29T11:55:00;101514.91;;;1.30;75.23
54854;BME280;40747;49.480;8.658;2023-01-29T11:57:35;101504.09;;;1.46;74.83
54854;BME280;40747;49.480;8.658;2023-01-29T12:00:24;101494.19;;;0.68;74.58
54854;BME280;40747;49.480;8.658;2023-01-29T12:05:22;101498.34;;;0.93;76.47
54854;BME280;40747;49.480;8.658;2023-01-29T12:07:49;101493.34;;;0.99;75.42
54854;BME280;40747;49.480;8.658;2023-01-29T12:15:37;101481.31;;;1.01;75.59
54854;BME280;40747;49.480;8.658;2023-01-29T12:18:34;101478.53;;;0.95;76.22
54854;BME280;40747;49.480;8.658;2023-01-29T12:21:02;101474.13;;;0.92;75.92
54854;BME280;40747;49.480;8.658;2023-01-29T12:26:30;101468.78;;;1.20;76.45
54854;BME280;40747;49.480;8.658;2023-01-29T12:29:40;101462.81;;;0.90;75.68
54854;BME280;40747;49.480;8.658;2023-01-29T12:34:51;101455.88;;;0.89;75.75
54854;BME280;40747;49.480;8.658;2023-01-29T12:39:48;101454.06;;;1.19;76.69
54854;BME280;40747;49.480;8.658;2023-01-29T12:42:19;101454.75;;;1.45;74.55
54854;BME280;40747;49.480;8.658;2023-01-29T12:44:53;101451.16;;;1.40;74.81
54854;BME280;40747;49.480;8.658;2023-01-29T12:47:31;101452.66;;;1.31;76.14
54854;BME280;40747;49.480;8.658;2023-01-29T12:50:02;101452.59;;;1.28;76.78
54854;BME280;40747;49.480;8.658;2023-01-29T12:52:42;101460.88;;;1.15;76.16
54854;BME280;40747;49.480;8.658;2023-01-29T12:55:15;101448.34;;;1.67;75.43
54854;BME280;40747;49.480;8.658;2023-01-29T12:57:52;101442.09;;;1.59;73.68
54854;BME280;40747;49.480;8.658;2023-01-29T13:00:34;101430.63;;;1.16;74.16
54854;BME280;40747;49.480;8.658;2023-01-29T13:05:56;101429.16;;;1.25;77.74
54854;BME280;40747;49.480;8.658;2023-01-29T13:08:34;101430.31;;;1.73;75.68
54854;BME280;40747;49.480;8.658;2023-01-29T13:11:05;101423.47;;;2.15;73.24
54854;BME280;40747;49.480;8.658;2023-01-29T13:13:40;101422.47;;;2.51;71.21
54854;BME280;40747;49.480;8.658;2023-01-29T13:16:11;101417.75;;;2.77;69.98
54854;BME280;40747;49.480;8.658;2023-01-29T13:18:43;101411.25;;;3.00;68.48
54854;BME280;40747;49.480;8.658;2023-01-29T13:21:30;101405.47;;;3.18;67.38
54854;BME280;40747;49.480;8.658;2023-01-29T13:24:03;101407.94;;;3.10;68.27
54854;BME280;40747;49.480;8.658;2023-01-29T13:26:29;101403.56;;;3.07;67.82
54854;BME280;40747;49.480;8.658;2023-01-29T13:28:56;101400.31;;;3.21;67.12
54854;BME280;40747;49.480;8.658;2023-01-29T13:31:32;101399.47;;;3.22;66.45
54854;BME280;40747;49.480;8.658;2023-01-29T13:36:43;101384.31;;;2.99;67.88
54854;BME280;40747;49.480;8.658;2023-01-29T13:39:28;101402.25;;;2.82;68.48
54854;BME280;40747;49.480;8.658;2023-01-29T13:41:55;101387.84;;;3.03;68.52
54854;BME280;40747;49.480;8.658;2023-01-29T13:44:38;101388.16;;;3.20;67.54
54854;BME280;40747;49.480;8.658;2023-01-29T13:47:09;101384.28;;;2.96;67.77
54854;BME280;40747;49.480;8.658;2023-01-29T13:49:42;101392.47;;;3.18;67.65
54854;BME280;40747;49.480;8.658;2023-01-29T13:52:14;101373.75;;;2.90;68.84
54854;BME280;40747;49.480;8.658;2023-01-29T13:54:49;101380.47;;;2.78;69.09
54854;BME280;40747;49.480;8.658;2023-01-29T14:08:02;101356.69;;;3.06;68.76
54854;BME280;40747;49.480;8.658;2023-01-29T14:10:29;101349.16;;;3.23;68.08
54854;BME280;40747;49.480;8.658;2023-01-29T14:15:29;101366.06;;;3.50;66.91
54854;BME280;40747;49.480;8.658;2023-01-29T14:18:04;101368.69;;;3.53;66.33
54854;BME280;40747;49.480;8.658;2023-01-29T14:20:38;101364.72;;;3.20;68.58
54854;BME280;40747;49.480;8.658;2023-01-29T14:23:06;101362.38;;;2.85;69.73
54854;BME280;40747;49.480;8.658;2023-01-29T14:25:34;101328.31;;;2.72;68.51
54854;BME280;40747;49.480;8.658;2023-01-29T14:28:03;101356.72;;;3.09;68.12
54854;BME280;40747;49.480;8.658;2023-01-29T14:30:31;101353.41;;;3.18;68.63
54854;BME280;40747;49.480;8.658;2023-01-29T14:32:58;101356.03;;;3.21;69.87
54854;BME280;40747;49.480;8.658;2023-01-29T14:35:28;101359.53;;;3.20;68.56
54854;BME280;40747;49.480;8.658;2023-01-29T14:37:59;101355.09;;;3.16;67.86
54854;BME280;40747;49.480;8.658;2023-01-29T14:40:28;101359.59;;;3.26;67.77
54854;BME280;40747;49.480;8.658;2023-01-29T14:45:31;101360.16;;;3.06;67.99
54854;BME280;40747;49.480;8.658;2023-01-29T14:48:37;101360.25;;;3.13;67.77
54854;BME280;40747;49.480;8.658;2023-01-29T14:50:50;101348.31;;;3.24;68.27